Latest Weather Observations for Mackay

IDQ60801

Issued at 11:31 am EST Saturday 28 March 2015 (issued every 30 minutes, with the page automatically refreshed every 10 minutes)

About weather observations | Map of weather stations | Latest weather observations for QLD | Other Formats
Station Details ID: 033119 Name: MACKAY M.O Lat: -21.12 Lon: 149.22 Height: 30.26 m
Data from the previous 72 hours. | See also: Recent months at Mackay
Date/Time
EST
Temp
°C
App
Temp
°C
Dew
Point
Rel
Hum
%
Delta-T
°C
Wind Press
QNH
hPa
Press
MSL
hPa
Rain
since 9 am
mm
Dir
 
Spd
km/h
Gust
km/h
Spd
kts
Gust
kts
28/11:00am 29.9 31.6 21.7 61 5.5 SE 15 24 8 13 1017.9 1017.7 0.0
28/10:30am 29.8 31.8 21.6 61 5.5 SE 13 20 7 11 1018.0 1017.8 0.0
28/10:00am 28.2 29.9 21.0 65 4.8 ESE 13 20 7 11 1018.2 1018.0 0.0
28/09:30am 29.1 31.0 20.6 60 5.6 ESE 11 22 6 12 1018.1 1017.9 0.0
28/09:00am 28.9 30.9 20.7 61 5.4 ESE 11 22 6 12 1017.9 1017.7 0.0
28/08:30am 28.4 30.3 20.5 62 5.2 SE 11 19 6 10 1017.8 1017.6 0.0
28/08:00am 28.1 30.1 20.7 64 4.9 SE 11 19 6 10 1017.6 1017.4 0.0
28/07:30am 28.1 30.4 20.7 64 4.9 ESE 9 17 5 9 1017.3 1017.1 0.0
28/07:00am 26.9 28.8 20.5 68 4.2 ESE 11 17 6 9 1016.9 1016.7 0.0
28/06:30am 26.4 28.2 20.3 69 4.0 ESE 11 20 6 11 1016.6 1016.4 0.0
28/06:04am 26.1 28.2 20.1 69 3.9 ESE 9 15 5 8 1016.3 1016.1 0.0
28/06:00am 26.1 28.1 19.9 68 4.0 ESE 9 17 5 9 1016.2 1016.0 0.0
28/05:30am 26.3 27.9 20.0 68 4.1 ESE 11 17 6 9 1016.0 1015.8 0.0
28/05:00am 26.2 27.8 19.9 68 4.1 ESE 11 17 6 9 1015.9 1015.7 0.0
28/04:30am 26.1 27.9 20.3 70 3.8 SE 11 15 6 8 1015.7 1015.5 0.0
28/04:00am 26.4 27.9 19.8 67 4.3 ESE 11 17 6 9 1015.4 1015.2 0.0
28/03:30am 26.3 27.8 19.8 67 4.2 ESE 11 20 6 11 1015.3 1015.1 0.0
28/03:00am 26.4 28.0 19.9 67 4.2 E 11 19 6 10 1015.4 1015.2 0.0
28/02:30am 26.3 28.4 20.2 69 4.0 ESE 9 17 5 9 1015.5 1015.3 0.0
28/02:00am 26.3 28.2 20.5 70 3.8 E 11 19 6 10 1015.6 1015.4 0.0
28/01:30am 26.3 28.0 20.2 69 4.0 E 11 19 6 10 1015.9 1015.7 0.0
28/01:00am 26.4 27.8 20.3 69 4.0 ENE 13 20 7 11 1016.2 1016.0 0.0
28/12:30am 26.5 27.5 20.2 68 4.1 E 15 24 8 13 1016.4 1016.2 0.0
 
Date/Time
EST
Temp
°C
App
Temp
°C
Dew
Point
Rel
Hum
%
Delta-T
°C
Wind Press
QNH
hPa
Press
MSL
hPa
Rain
since 9 am
mm
Dir
 
Spd
km/h
Gust
km/h
Spd
kts
Gust
kts
27/11:30pm 26.7 28.1 21.1 71 3.7 E 15 20 8 11 1016.7 1016.5 0.0
27/11:00pm 26.8 28.9 21.7 73 3.4 E 13 20 7 11 1016.8 1016.6 0.0
27/10:30pm 26.8 28.0 21.5 72 3.5 E 17 24 9 13 1016.9 1016.7 0.0
27/10:00pm 26.7 28.5 21.9 75 3.2 ENE 15 22 8 12 1016.8 1016.6 0.0
27/09:30pm 26.8 28.4 21.4 72 3.6 ENE 15 20 8 11 1016.8 1016.6 0.0
27/09:00pm 27.1 28.9 21.1 69 4.0 E 13 17 7 9 1016.7 1016.5 0.0
27/08:30pm 26.9 28.6 21.0 70 3.9 E 13 24 7 13 1016.5 1016.3 0.0
27/08:00pm 26.9 28.7 21.2 71 3.8 E 13 20 7 11 1016.1 1015.9 0.0
27/07:30pm 27.0 29.0 21.6 72 3.6 E 13 20 7 11 1015.9 1015.7 0.0
27/07:00pm 27.1 29.0 21.4 71 3.8 E 13 20 7 11 1015.5 1015.3 0.0
27/06:30pm 27.0 29.8 21.6 72 3.6 ESE 9 17 5 9 1015.4 1015.2 0.0
27/06:00pm 27.3 30.0 21.4 70 3.9 ESE 9 13 5 7 1015.1 1014.9 0.0
27/05:30pm 27.8 30.1 21.3 67 4.3 ESE 11 15 6 8 1015.0 1014.8 0.0
27/05:00pm 28.2 30.3 21.0 65 4.8 E 11 19 6 10 1014.8 1014.6 0.0
27/04:30pm 28.7 31.2 21.7 66 4.7 E 11 20 6 11 1014.7 1014.5 0.0
27/04:00pm 29.2 31.1 21.4 63 5.2 E 13 22 7 12 1014.4 1014.2 0.0
27/03:30pm 29.4 31.6 21.8 63 5.1 E 13 17 7 9 1014.4 1014.2 0.0
27/03:00pm 29.0 31.0 21.5 64 5.0 ESE 13 20 7 11 1014.5 1014.3 0.0
27/02:30pm 29.5 31.4 21.4 61 5.4 ESE 13 20 7 11 1014.8 1014.6 0.0
27/02:00pm 29.7 31.8 21.7 62 5.4 ESE 13 19 7 10 1015.1 1014.9 0.0
27/01:30pm 29.4 31.6 21.2 61 5.5 ESE 11 19 6 10 1015.4 1015.2 0.0
27/01:00pm 30.0 32.0 21.5 60 5.7 ESE 13 20 7 11 1015.7 1015.5 0.0
27/12:30pm 29.7 31.7 21.5 61 5.5 E 13 20 7 11 1016.1 1015.9 0.0
27/12:00pm 29.3 31.7 21.5 63 5.2 ESE 11 19 6 10 1016.8 1016.6 0.0
27/11:30am 29.5 31.4 21.4 61 5.4 ESE 13 20 7 11 1017.3 1017.1 0.0
27/11:00am 30.5 32.4 22.1 61 5.7 E 15 20 8 11 1017.7 1017.5 0.0
27/10:30am 29.6 30.9 21.7 62 5.3 ENE 17 22 9 12 1018.1 1017.9 0.0
27/10:00am 29.5 30.9 21.8 63 5.2 ENE 17 24 9 13 1018.3 1018.1 0.0
27/09:30am 29.3 30.7 21.9 64 5.0 ENE 17 24 9 13 1018.3 1018.1 0.0
27/09:00am 28.1 30.8 22.2 70 4.0 ESE 11 17 6 9 1018.4 1018.2 0.6
27/08:30am 27.1 31.4 23.6 81 2.4 SSW 7 13 4 7 1018.2 1018.0 0.6
27/08:00am 24.7 28.5 22.8 89 1.3 SW 7 11 4 6 1017.9 1017.7 0.6
27/07:30am 24.1 27.4 22.5 91 1.1 SW 9 15 5 8 1017.6 1017.4 0.6
27/07:00am 23.3 26.6 22.6 96 0.5 SW 9 13 5 7 1017.6 1017.4 0.6
27/06:30am 22.9 26.0 22.1 95 0.5 SW 9 11 5 6 1017.2 1017.0 0.6
27/06:00am 22.8 25.6 21.6 93 0.8 SW 9 15 5 8 1017.0 1016.8 0.0
27/05:30am 23.2 26.0 21.5 90 1.1 WSW 9 15 5 8 1016.6 1016.4 0.0
27/05:00am 23.6 27.0 21.6 88 1.3 SSW 6 11 3 6 1016.3 1016.1 0.0
27/04:30am 23.3 26.5 21.6 90 1.1 SSW 7 11 4 6 1016.0 1015.8 0.0
27/04:00am 24.1 27.3 21.7 86 1.6 ESE 7 17 4 9 1015.8 1015.6 0.0
27/03:30am 26.5 29.3 22.3 78 2.8 ENE 11 17 6 9 1015.8 1015.6 0.0
27/03:00am 26.8 29.1 22.0 75 3.2 ENE 13 20 7 11 1015.9 1015.7 0.0
27/02:30am 26.7 29.1 22.2 76 3.0 ENE 13 19 7 10 1016.0 1015.8 0.0
27/02:00am 26.7 29.2 22.4 77 2.9 E 13 20 7 11 1016.1 1015.9 0.0
27/01:30am 26.8 29.8 22.7 78 2.8 ENE 11 20 6 11 1016.3 1016.1 0.0
27/01:00am 26.9 29.6 22.8 78 2.8 ENE 13 20 7 11 1016.4 1016.2 0.0
27/12:30am 26.8 29.8 22.7 78 2.8 E 11 17 6 9 1016.6 1016.4 0.0
27/12:00am 26.9 29.6 22.8 78 2.8 ENE 13 20 7 11 1016.7 1016.5 0.0
 
Date/Time
EST
Temp
°C
App
Temp
°C
Dew
Point
Rel
Hum
%
Delta-T
°C
Wind Press
QNH
hPa
Press
MSL
hPa
Rain
since 9 am
mm
Dir
 
Spd
km/h
Gust
km/h
Spd
kts
Gust
kts
26/11:30pm 26.9 30.5 23.1 80 2.6 ESE 9 15 5 8 1016.9 1016.7 0.0
26/11:00pm 26.7 30.2 22.9 79 2.6 ESE 9 15 5 8 1017.1 1016.9 0.0
26/10:30pm 26.7 30.0 22.6 78 2.8 ESE 9 15 5 8 1017.2 1017.0 0.0
26/10:00pm 26.7 30.0 22.6 78 2.8 ESE 9 15 5 8 1017.4 1017.2 0.0
26/09:30pm 26.8 30.0 22.3 76 3.0 ESE 9 19 5 10 1017.4 1017.2 0.0
26/09:00pm 26.7 29.8 22.1 76 3.1 SE 9 15 5 8 1017.2 1017.0 0.0
26/08:30pm 26.7 29.7 21.9 75 3.2 ESE 9 15 5 8 1017.1 1016.9 0.0
26/08:00pm 26.8 29.7 21.7 73 3.4 SE 9 15 5 8 1016.7 1016.5 0.0
26/07:30pm 26.9 29.2 21.3 71 3.7 ESE 11 17 6 9 1016.4 1016.2 0.0
26/07:00pm 27.1 29.5 20.9 69 4.1 ESE 9 17 5 9 1016.3 1016.1 0.0
26/06:30pm 27.1 29.4 20.7 68 4.2 ESE 9 15 5 8 1016.0 1015.8 0.0
26/06:00pm 27.3 29.8 21.1 69 4.1 ESE 9 15 5 8 1015.7 1015.5 0.0
26/05:30pm 27.9 30.4 21.1 66 4.5 ESE 9 13 5 7 1015.2 1015.0 0.0
26/05:00pm 28.4 30.8 20.9 64 5.0 ESE 9 15 5 8 1015.1 1014.9 0.0
26/04:30pm 28.7 31.1 20.9 62 5.2 ESE 9 15 5 8 1015.0 1014.8 0.0
26/04:00pm 29.2 31.6 20.8 60 5.6 ESE 9 17 5 9 1014.8 1014.6 0.0
26/03:30pm 29.0 30.6 20.7 61 5.5 ESE 13 20 7 11 1014.6 1014.4 0.0
26/03:00pm 29.0 30.5 20.5 60 5.6 E 13 19 7 10 1014.6 1014.4 0.0
26/02:30pm 29.9 31.3 21.1 59 5.9 E 15 20 8 11 1014.8 1014.6 0.0
26/02:00pm 29.7 31.0 20.1 56 6.3 E 13 20 7 11 1015.1 1014.9 0.0
26/01:30pm 29.4 31.0 20.8 60 5.7 E 13 20 7 11 1015.4 1015.2 0.0
26/01:00pm 29.1 30.3 19.8 57 6.1 ESE 13 19 7 10 1015.7 1015.5 0.0
26/12:30pm 29.3 30.7 20.4 58 5.9 E 13 17 7 9 1016.3 1016.1 0.0
26/12:00pm 28.9 30.8 20.6 61 5.5 E 11 17 6 9 1016.7 1016.5 0.0
26/11:30am 29.1 31.5 21.5 63 5.1 E 11 17 6 9 1017.1 1016.9 0.0
26/11:00am 28.8 31.8 22.0 66 4.6 ESE 9 15 5 8 1017.5 1017.3 0.0
26/10:30am 28.6 31.5 21.7 66 4.6 ESE 9 13 5 7 1017.7 1017.5 0.0
26/10:00am 29.2 33.0 22.7 68 4.4 ESE 7 13 4 7 1017.8 1017.6 0.0
26/09:30am 28.2 31.9 22.6 71 3.8 ESE 7 11 4 6 1017.8 1017.6 0.0
26/09:00am 27.9 31.5 22.4 72 3.7 ESE 7 11 4 6 1017.7 1017.5 0.0
26/08:30am 27.1 30.9 22.4 75 3.2 SE 6 9 3 5 1017.5 1017.3 0.0
26/08:00am 25.6 29.3 22.5 83 2.1 SSW 7 9 4 5 1017.4 1017.2 0.0
26/07:30am 23.9 27.1 22.3 91 1.1 SW 9 11 5 6 1017.0 1016.8 0.0
26/07:00am 22.7 25.7 21.9 95 0.5 SW 9 11 5 6 1016.6 1016.4 0.0
26/06:30am 22.2 25.0 21.6 96 0.4 SW 9 13 5 7 1016.3 1016.1 0.0
26/06:00am 22.3 25.2 21.7 96 0.4 SW 9 13 5 7 1016.0 1015.8 0.0
26/05:30am 22.3 24.8 21.7 96 0.4 SW 11 13 6 7 1015.7 1015.5 0.0
26/05:00am 22.4 24.8 21.6 95 0.5 WSW 11 15 6 8 1015.4 1015.2 0.0
26/04:30am 22.5 25.0 21.7 95 0.5 SW 11 15 6 8 1015.1 1014.9 0.0
26/04:00am 22.8 25.4 21.9 95 0.6 SW 11 15 6 8 1014.8 1014.6 0.0
26/03:30am 23.1 26.3 21.7 92 0.9 SW 7 11 4 6 1014.5 1014.3 0.0
26/03:00am 23.5 27.1 22.1 92 0.9 SW 6 7 3 4 1014.6 1014.4 0.0
26/02:30am 23.3 26.4 22.1 93 0.8 SW 9 11 5 6 1014.9 1014.7 0.0
26/02:00am 23.5 26.4 21.8 90 1.1 SW 9 9 5 5 1014.9 1014.7 0.0
26/01:30am 23.7 26.7 22.0 90 1.1 WSW 9 11 5 6 1015.0 1014.8 0.0
26/01:00am 24.0 27.4 22.0 88 1.3 SW 7 9 4 5 1015.3 1015.1 0.0
26/12:30am 24.0 28.2 21.7 87 1.5 SW 2 7 1 4 1015.6 1015.4 0.0
26/12:00am 24.1 27.7 22.0 88 1.4 WSW 6 9 3 5 1015.9 1015.7 0.0
 
Date/Time
EST
Temp
°C
App
Temp
°C
Dew
Point
Rel
Hum
%
Delta-T
°C
Wind Press
QNH
hPa
Press
MSL
hPa
Rain
since 9 am
mm
Dir
 
Spd
km/h
Gust
km/h
Spd
kts
Gust
kts
25/11:30pm 24.2 29.0 22.1 88 1.4 CALM 0 0 0 0 1016.0 1015.8 0.0
25/11:00pm 25.1 28.3 21.3 79 2.5 NW 6 9 3 5 1016.1 1015.9 0.0
25/10:30pm 25.0 28.3 21.4 80 2.4 NW 6 7 3 4 1016.3 1016.1 0.0
25/10:00pm 25.5 28.7 21.3 77 2.8 NNW 6 7 3 4 1016.4 1016.2 0.0
25/09:30pm 25.7 28.8 21.0 75 3.1 NE 6 9 3 5 1016.5 1016.3 0.0
25/09:00pm 26.0 29.8 21.0 74 3.3 N 2 7 1 4 1016.4 1016.2 0.0
25/08:30pm 26.0 29.2 21.3 75 3.1 NNE 6 9 3 5 1016.0 1015.8 0.0
25/08:00pm 26.3 29.2 21.0 72 3.5 NE 7 11 4 6 1015.7 1015.5 0.0
25/07:30pm 26.2 29.2 20.9 72 3.5 NE 6 11 3 6 1015.3 1015.1 0.0
25/07:00pm 26.7 29.1 20.8 70 3.9 NE 9 13 5 7 1014.9 1014.7 0.0
25/06:30pm 26.9 29.8 21.7 73 3.5 NE 9 13 5 7 1014.4 1014.2 0.0
25/06:00pm 27.5 30.4 21.7 70 3.9 NE 9 15 5 8 1014.2 1014.0 0.0
25/05:30pm 28.1 31.1 22.0 69 4.1 NE 9 17 5 9 1014.0 1013.8 0.0
25/05:00pm 29.1 31.8 22.2 66 4.7 NE 11 19 6 10 1013.6 1013.4 0.0
25/04:30pm 29.9 33.0 22.2 63 5.2 NE 9 17 5 9 1013.7 1013.5 0.0
25/04:00pm 30.0 32.9 22.5 64 5.1 NE 11 20 6 11 1013.6 1013.4 0.0
25/03:30pm 31.1 34.3 23.1 62 5.5 NE 11 17 6 9 1013.5 1013.3 0.0
25/03:00pm 31.2 33.7 23.1 62 5.6 NE 15 22 8 12 1013.5 1013.3 0.0
25/02:30pm 32.2 34.7 22.4 56 6.7 NNE 13 20 7 11 1013.8 1013.6 0.0
25/02:00pm 31.8 34.3 22.4 57 6.4 NNE 13 22 7 12 1014.0 1013.8 0.0
25/01:30pm 32.0 34.4 22.3 56 6.6 NNE 13 22 7 12 1014.2 1014.0 0.0
25/01:00pm 32.3 34.7 22.2 55 6.9 NNE 13 20 7 11 1014.5 1014.3 0.0
25/12:30pm 31.9 34.1 21.9 55 6.8 NE 13 24 7 13 1014.9 1014.7 0.0
25/12:00pm 32.2 34.1 22.1 55 6.9 NNE 15 22 8 12 1015.2 1015.0 0.0

Other Formats:

Comma delimited format used in spreadsheet applications
http://www.bom.gov.au/fwo/IDQ60801/IDQ60801.94367.axf

JavaScript Object Notation format (JSON) in row-major order
http://www.bom.gov.au/fwo/IDQ60801/IDQ60801.94367.json